createdAt,value
2022-07-29T00:01:02.168Z,1.60
2022-07-29T00:03:29.443Z,1.42
2022-07-29T00:05:56.465Z,1.40
2022-07-29T00:08:23.591Z,1.23
2022-07-29T00:10:51.183Z,1.50
2022-07-29T00:13:18.201Z,1.38
2022-07-29T00:15:59.006Z,1.42
2022-07-29T00:18:33.225Z,1.35
2022-07-29T00:21:00.573Z,1.67
2022-07-29T00:23:27.681Z,1.40
2022-07-29T00:25:54.751Z,1.23
2022-07-29T00:28:21.607Z,1.42
2022-07-29T00:30:48.401Z,1.20
2022-07-29T00:33:15.261Z,1.35
2022-07-29T00:35:45.149Z,1.42
2022-07-29T00:38:18.103Z,1.60
2022-07-29T00:40:46.176Z,1.20
2022-07-29T00:43:14.892Z,1.63
2022-07-29T00:45:45.274Z,1.30
2022-07-29T00:48:12.108Z,1.60
2022-07-29T00:50:39.258Z,1.38
2022-07-29T00:53:08.401Z,1.50
2022-07-29T00:55:36.113Z,1.35
2022-07-29T00:58:03.241Z,1.75
2022-07-29T01:00:31.004Z,1.25
2022-07-29T01:02:58.248Z,1.50
2022-07-29T01:05:49.686Z,1.27
2022-07-29T01:08:17.560Z,1.63
2022-07-29T01:10:47.302Z,1.75
2022-07-29T01:13:16.038Z,1.50
2022-07-29T01:15:50.651Z,1.33
2022-07-29T01:18:34.050Z,1.60
2022-07-29T01:21:34.613Z,1.20
2022-07-29T01:24:56.602Z,1.38
2022-07-29T01:27:42.442Z,1.15
2022-07-29T01:30:09.843Z,1.30
2022-07-29T01:32:42.169Z,1.30
2022-07-29T01:35:22.465Z,1.40
2022-07-29T01:38:13.784Z,1.40
2022-07-29T01:41:13.635Z,1.23
2022-07-29T01:43:53.330Z,1.40
2022-07-29T01:46:38.691Z,1.20
2022-07-29T01:49:18.245Z,1.52
2022-07-29T01:51:53.447Z,1.42
2022-07-29T01:57:30.844Z,1.30
2022-07-29T02:00:00.257Z,1.20
2022-07-29T02:02:29.570Z,1.48
2022-07-29T02:04:58.951Z,1.40
2022-07-29T02:07:29.825Z,1.10
2022-07-29T02:09:59.424Z,1.30
2022-07-29T02:12:28.016Z,1.20
2022-07-29T02:14:57.653Z,1.40
2022-07-29T02:17:58.067Z,1.20
2022-07-29T02:20:28.089Z,1.48
2022-07-29T02:22:56.913Z,1.20
2022-07-29T02:25:25.892Z,1.40
2022-07-29T02:28:06.746Z,1.30
2022-07-29T02:30:37.707Z,1.20
2022-07-29T02:33:06.680Z,1.48
2022-07-29T02:35:34.862Z,1.42
2022-07-29T02:38:21.911Z,1.30
2022-07-29T02:40:51.736Z,1.30
2022-07-29T02:43:20.631Z,1.48
2022-07-29T02:45:53.263Z,1.50
2022-07-29T02:48:24.827Z,1.20
2022-07-29T02:51:03.109Z,1.42
2022-07-29T02:53:34.300Z,1.75
2022-07-29T02:56:09.236Z,1.35
2022-07-29T02:58:42.285Z,1.55
2022-07-29T03:01:23.785Z,1.60
2022-07-29T03:03:54.327Z,1.65
2022-07-29T03:06:30.962Z,1.50
2022-07-29T03:09:12.840Z,1.98
2022-07-29T03:11:49.582Z,1.20
2022-07-29T03:14:19.613Z,1.60
2022-07-29T03:16:47.878Z,1.80
2022-07-29T03:19:15.150Z,1.67
2022-07-29T03:21:42.019Z,1.55
2022-07-29T03:24:10.729Z,1.40
2022-07-29T03:26:38.173Z,1.73
2022-07-29T03:29:05.130Z,1.50
2022-07-29T03:31:33.428Z,1.40
2022-07-29T03:34:01.012Z,1.52
2022-07-29T03:36:27.921Z,1.70
2022-07-29T03:38:55.779Z,1.60
2022-07-29T03:41:25.206Z,1.67
2022-07-29T03:43:53.198Z,1.38
2022-07-29T03:46:24.792Z,1.35
2022-07-29T03:48:57.608Z,1.73
2022-07-29T03:51:33.435Z,1.25
2022-07-29T03:54:14.388Z,1.50
2022-07-29T03:56:47.402Z,1.60
2022-07-29T03:59:16.612Z,1.55
2022-07-29T04:01:44.466Z,1.45
2022-07-29T04:04:12.160Z,1.42
2022-07-29T04:06:44.440Z,1.80
2022-07-29T04:09:13.357Z,1.48
2022-07-29T04:11:59.676Z,1.60
2022-07-29T04:14:29.259Z,1.90
2022-07-29T04:16:56.427Z,1.67
2022-07-29T04:19:23.722Z,1.55
2022-07-29T04:21:50.798Z,1.30
2022-07-29T04:24:18.603Z,1.40
2022-07-29T04:26:47.829Z,1.60
2022-07-29T04:29:15.510Z,1.33
2022-07-29T04:31:43.419Z,1.33
2022-07-29T04:34:11.030Z,1.38
2022-07-29T04:36:37.986Z,1.65
2022-07-29T04:39:05.441Z,1.52
2022-07-29T04:41:33.036Z,1.30
2022-07-29T04:44:02.170Z,1.42
2022-07-29T04:46:29.282Z,1.40
2022-07-29T04:48:56.474Z,1.50
2022-07-29T04:51:23.439Z,1.50
2022-07-29T04:53:50.290Z,1.30
2022-07-29T04:56:17.140Z,1.25
2022-07-29T04:58:43.985Z,1.50
2022-07-29T05:01:10.895Z,1.25
2022-07-29T05:03:37.906Z,1.60
2022-07-29T05:06:04.747Z,1.23
2022-07-29T05:08:31.640Z,1.45
2022-07-29T05:10:58.644Z,1.25
2022-07-29T05:13:46.330Z,1.40
2022-07-29T05:18:42.856Z,1.15
2022-07-29T05:21:09.661Z,1.70
2022-07-29T05:23:36.780Z,1.23
2022-07-29T05:26:03.951Z,1.73
2022-07-29T05:28:36.310Z,1.30
2022-07-29T05:31:03.449Z,1.27
2022-07-29T05:33:36.229Z,1.45
2022-07-29T05:36:08.068Z,1.60
2022-07-29T05:38:36.817Z,1.70
2022-07-29T05:41:04.357Z,1.25
2022-07-29T05:43:31.500Z,1.10
2022-07-29T05:45:58.973Z,1.55
2022-07-29T05:48:26.542Z,1.50
2022-07-29T05:50:53.845Z,1.95
2022-07-29T05:53:21.152Z,1.80
2022-07-29T05:55:52.810Z,1.30
2022-07-29T05:58:20.374Z,1.75
2022-07-29T06:00:47.814Z,1.60
2022-07-29T06:03:15.120Z,2.08
2022-07-29T06:05:42.022Z,1.65
2022-07-29T06:08:08.867Z,1.70
2022-07-29T06:10:37.014Z,1.88
2022-07-29T06:13:04.212Z,1.90
2022-07-29T06:15:31.293Z,1.65
2022-07-29T06:17:59.870Z,1.80
2022-07-29T06:20:31.849Z,1.52
2022-07-29T06:22:59.414Z,1.88
2022-07-29T06:25:26.679Z,2.42
2022-07-29T06:27:53.745Z,1.80
2022-07-29T06:30:20.920Z,1.73
2022-07-29T06:32:48.339Z,1.80
2022-07-29T06:35:41.130Z,2.00
2022-07-29T06:38:08.406Z,1.75
2022-07-29T06:41:04.058Z,1.60
2022-07-29T06:43:52.389Z,1.75
2022-07-29T06:46:23.373Z,1.83
2022-07-29T06:48:51.564Z,1.70
2022-07-29T06:51:22.284Z,1.70
2022-07-29T06:53:59.671Z,1.67
2022-07-29T06:56:39.124Z,1.48
2022-07-29T06:59:09.244Z,2.03
2022-07-29T07:01:41.346Z,1.73
2022-07-29T07:04:10.011Z,1.58
2022-07-29T07:06:37.730Z,1.77
2022-07-29T07:09:05.212Z,1.40
2022-07-29T07:11:32.497Z,1.70
2022-07-29T07:14:03.396Z,1.88
2022-07-29T07:16:32.066Z,1.88
2022-07-29T07:18:59.344Z,1.70
2022-07-29T07:21:26.423Z,1.85
2022-07-29T07:23:57.252Z,1.50
2022-07-29T07:26:24.199Z,1.35
2022-07-29T07:28:51.289Z,2.28
2022-07-29T07:31:18.560Z,1.85
2022-07-29T07:33:45.547Z,1.70
2022-07-29T07:36:12.700Z,1.88
2022-07-29T07:38:42.929Z,1.65
2022-07-29T07:41:09.870Z,1.90
2022-07-29T07:43:36.662Z,2.03
2022-07-29T07:46:03.601Z,1.67
2022-07-29T07:48:30.607Z,1.80
2022-07-29T07:50:57.585Z,2.05
2022-07-29T07:53:25.265Z,1.90
2022-07-29T07:58:39.928Z,1.95
2022-07-29T08:01:07.717Z,2.17
2022-07-29T08:03:35.083Z,1.88
2022-07-29T08:06:02.628Z,1.85
2022-07-29T08:08:29.553Z,1.77
2022-07-29T08:11:02.130Z,2.10
2022-07-29T08:13:33.070Z,2.00
2022-07-29T08:16:01.904Z,1.88
2022-07-29T08:18:31.834Z,1.75
2022-07-29T08:20:59.754Z,1.98
2022-07-29T08:23:32.841Z,1.85
2022-07-29T08:26:14.272Z,2.58
2022-07-29T08:28:47.196Z,2.10
2022-07-29T08:31:15.583Z,2.13
2022-07-29T08:33:43.472Z,2.05
2022-07-29T08:36:10.801Z,2.20
2022-07-29T08:38:37.683Z,1.90
2022-07-29T08:41:04.675Z,1.85
2022-07-29T08:43:31.726Z,2.35
2022-07-29T08:45:58.758Z,1.88
2022-07-29T08:48:25.958Z,1.88
2022-07-29T08:50:58.038Z,2.03
2022-07-29T08:53:28.417Z,1.73
2022-07-29T08:55:57.225Z,1.95
2022-07-29T08:58:25.720Z,2.10
2022-07-29T09:00:56.508Z,2.10
2022-07-29T09:03:31.722Z,2.08
2022-07-29T09:06:00.624Z,1.90
2022-07-29T09:08:28.072Z,2.28
2022-07-29T09:10:57.129Z,2.17
2022-07-29T09:13:24.653Z,2.22
2022-07-29T09:15:51.826Z,2.38
2022-07-29T09:18:46.026Z,1.88
2022-07-29T09:21:37.056Z,2.10
2022-07-29T09:24:08.200Z,2.30
2022-07-29T09:26:46.882Z,2.80
2022-07-29T09:29:23.768Z,2.40
2022-07-29T09:31:55.934Z,2.13
2022-07-29T09:34:32.773Z,2.47
2022-07-29T09:36:59.767Z,2.25
2022-07-29T09:39:34.318Z,2.40
2022-07-29T09:42:07.499Z,2.25
2022-07-29T09:44:47.878Z,2.90
2022-07-29T09:47:15.485Z,2.90
2022-07-29T09:50:00.416Z,3.08
2022-07-29T09:52:31.436Z,3.17
2022-07-29T09:55:09.531Z,3.00
2022-07-29T09:57:36.433Z,2.75
2022-07-29T10:00:12.133Z,2.20
2022-07-29T10:02:45.312Z,3.17
2022-07-29T10:05:26.039Z,3.10
2022-07-29T10:07:58.756Z,3.45
2022-07-29T10:10:37.792Z,2.83
2022-07-29T10:13:16.050Z,3.35
2022-07-29T10:15:46.992Z,3.00
2022-07-29T10:18:18.574Z,3.30
2022-07-29T10:20:46.182Z,2.97
2022-07-29T10:23:13.779Z,3.17
2022-07-29T10:25:45.973Z,3.10
2022-07-29T10:28:16.464Z,3.05
2022-07-29T10:30:46.247Z,3.38
2022-07-29T10:33:52.805Z,2.97
2022-07-29T10:36:40.216Z,3.00
2022-07-29T10:39:44.765Z,2.20
2022-07-29T10:45:04.184Z,2.78
2022-07-29T10:47:31.874Z,2.53
2022-07-29T10:50:06.343Z,3.28
2022-07-29T10:52:57.478Z,3.22
2022-07-29T10:55:39.432Z,3.00
2022-07-29T10:58:20.786Z,2.45
2022-07-29T11:00:53.953Z,2.55
2022-07-29T11:03:52.226Z,2.83
2022-07-29T11:06:26.740Z,2.65
2022-07-29T11:09:35.070Z,3.05
2022-07-29T11:12:39.325Z,2.83
2022-07-29T11:15:18.541Z,2.25
2022-07-29T11:18:01.430Z,2.30
2022-07-29T11:20:49.910Z,2.20
2022-07-29T11:23:33.976Z,2.35
2022-07-29T11:29:04.787Z,2.33
2022-07-29T11:31:50.189Z,2.15
2022-07-29T11:37:14.000Z,2.60
2022-07-29T11:39:47.850Z,2.97
2022-07-29T11:42:17.706Z,2.75
2022-07-29T11:45:42.733Z,2.40
2022-07-29T11:48:27.574Z,2.28
2022-07-29T11:50:48.173Z,2.80
2022-07-29T11:56:03.456Z,2.47
2022-07-29T11:58:31.673Z,2.50
2022-07-29T12:00:58.703Z,2.50
2022-07-29T12:03:35.349Z,2.60
2022-07-29T12:06:02.938Z,2.60
2022-07-29T12:07:03.797Z,2.80
2022-07-29T12:08:31.067Z,2.25
2022-07-29T12:10:58.546Z,2.60
2022-07-29T12:13:37.657Z,2.10
2022-07-29T12:16:05.918Z,2.50
2022-07-29T12:18:32.944Z,2.45
2022-07-29T12:21:05.546Z,2.38
2022-07-29T12:23:34.964Z,2.50
2022-07-29T12:26:10.475Z,2.88
2022-07-29T12:28:40.007Z,2.20
2022-07-29T12:31:10.307Z,2.70
2022-07-29T12:33:37.325Z,2.20
2022-07-29T12:36:17.286Z,2.80
2022-07-29T12:38:45.712Z,2.25
2022-07-29T12:41:12.821Z,2.63
2022-07-29T12:43:56.868Z,2.20
2022-07-29T12:46:23.989Z,2.03
2022-07-29T12:48:55.967Z,1.95
2022-07-29T12:51:49.421Z,2.15
2022-07-29T12:54:16.894Z,2.03
2022-07-29T12:56:46.148Z,1.95
2022-07-29T12:59:23.936Z,2.17
2022-07-29T13:01:53.243Z,2.05
2022-07-29T13:04:34.620Z,1.95
2022-07-29T13:07:10.457Z,2.15
2022-07-29T13:09:41.251Z,2.40
2022-07-29T13:12:11.677Z,2.20
2022-07-29T13:14:44.852Z,2.25
2022-07-29T13:17:18.634Z,2.33
2022-07-29T13:20:10.371Z,2.13
2022-07-29T13:22:37.585Z,5.20
2022-07-29T13:25:05.035Z,3.17
2022-07-29T13:27:35.433Z,2.70
2022-07-29T13:30:05.954Z,2.30
2022-07-29T13:32:37.533Z,2.38
2022-07-29T13:35:09.478Z,3.10
2022-07-29T13:37:39.746Z,1.98
2022-07-29T13:40:12.549Z,2.17
2022-07-29T13:42:40.325Z,2.20
2022-07-29T13:45:08.513Z,1.85
2022-07-29T13:47:35.679Z,2.40
2022-07-29T13:50:06.248Z,1.92
2022-07-29T13:52:34.493Z,1.77
2022-07-29T13:55:01.857Z,1.85
2022-07-29T13:57:28.961Z,2.20
2022-07-29T13:59:56.816Z,2.30
2022-07-29T14:02:25.441Z,2.00
2022-07-29T14:04:54.777Z,1.75
2022-07-29T14:07:22.532Z,2.53
2022-07-29T14:09:49.342Z,1.90
2022-07-29T14:12:16.256Z,1.92
2022-07-29T14:14:43.269Z,1.90
2022-07-29T14:17:10.840Z,1.83
2022-07-29T14:19:39.249Z,1.83
2022-07-29T14:22:08.890Z,2.00
2022-07-29T14:24:37.658Z,1.77
2022-07-29T14:27:06.771Z,2.08
2022-07-29T14:29:37.331Z,2.30
2022-07-29T14:32:08.365Z,1.95
2022-07-29T14:34:36.818Z,2.15
2022-07-29T14:37:06.856Z,2.05
2022-07-29T14:39:42.829Z,2.10
2022-07-29T14:42:12.761Z,2.00
2022-07-29T14:44:42.626Z,1.85
2022-07-29T14:47:10.638Z,1.70
2022-07-29T14:49:37.635Z,2.10
2022-07-29T14:52:05.308Z,2.00
2022-07-29T14:54:32.242Z,1.92
2022-07-29T14:56:59.388Z,1.80
2022-07-29T14:59:27.478Z,2.22
2022-07-29T15:01:57.903Z,2.00
2022-07-29T15:04:25.124Z,2.10
2022-07-29T15:06:53.049Z,1.70
2022-07-29T15:09:20.212Z,1.80
2022-07-29T15:11:47.082Z,2.00
2022-07-29T15:14:14.177Z,2.20
2022-07-29T15:16:43.748Z,1.73
2022-07-29T15:19:16.482Z,2.03
2022-07-29T15:21:48.688Z,2.10
2022-07-29T15:24:18.038Z,2.10
2022-07-29T15:26:45.759Z,1.85
2022-07-29T15:29:13.139Z,1.80
2022-07-29T15:31:40.779Z,2.00
2022-07-29T15:34:08.502Z,2.03
2022-07-29T15:36:51.644Z,1.60
2022-07-29T15:39:20.097Z,1.90
2022-07-29T15:41:47.327Z,2.08
2022-07-29T15:44:14.390Z,1.70
2022-07-29T15:47:00.605Z,2.08
2022-07-29T15:49:46.271Z,2.00
2022-07-29T15:52:24.716Z,2.03
2022-07-29T15:54:57.811Z,1.90
2022-07-29T15:57:25.506Z,1.95
2022-07-29T15:59:52.913Z,2.10
2022-07-29T16:02:19.789Z,1.90
2022-07-29T16:04:47.548Z,2.30
2022-07-29T16:07:15.378Z,1.80
2022-07-29T16:09:49.495Z,1.92
2022-07-29T16:12:19.547Z,2.20
2022-07-29T16:14:49.547Z,2.00
2022-07-29T16:17:17.246Z,2.28
2022-07-29T16:19:45.552Z,2.13
2022-07-29T16:22:12.907Z,1.80
2022-07-29T16:24:40.124Z,2.20
2022-07-29T16:27:07.638Z,1.80
2022-07-29T16:29:34.581Z,2.03
2022-07-29T16:32:02.061Z,2.00
2022-07-29T16:34:29.834Z,2.42
2022-07-29T16:36:56.885Z,1.92
2022-07-29T16:39:23.778Z,1.70
2022-07-29T16:41:50.792Z,2.10
2022-07-29T16:44:17.904Z,2.00
2022-07-29T16:46:45.789Z,2.30
2022-07-29T16:49:19.065Z,2.55
2022-07-29T16:51:48.062Z,2.13
2022-07-29T16:54:15.436Z,2.47
2022-07-29T16:56:42.267Z,1.80
2022-07-29T16:59:09.164Z,1.80
2022-07-29T17:01:36.199Z,2.03
2022-07-29T17:04:06.341Z,1.95
2022-07-29T17:06:35.764Z,1.75
2022-07-29T17:09:07.577Z,1.98
2022-07-29T17:11:51.698Z,2.20
2022-07-29T17:14:27.081Z,2.10
2022-07-29T17:17:00.744Z,2.20
2022-07-29T17:19:32.515Z,1.90
2022-07-29T17:22:08.419Z,2.00
2022-07-29T17:24:38.287Z,1.80
2022-07-29T17:27:06.516Z,2.20
2022-07-29T17:29:35.283Z,1.88
2022-07-29T17:32:02.289Z,2.03
2022-07-29T17:34:29.182Z,2.17
2022-07-29T17:36:56.840Z,2.30
2022-07-29T17:39:24.005Z,2.20
2022-07-29T17:41:51.001Z,1.80
2022-07-29T17:44:18.036Z,1.90
2022-07-29T17:46:44.974Z,2.00
2022-07-29T17:49:11.994Z,1.90
2022-07-29T17:51:39.015Z,1.90
2022-07-29T17:54:06.041Z,2.10
2022-07-29T17:56:33.277Z,2.00
2022-07-29T17:59:01.708Z,2.00
2022-07-29T18:01:29.044Z,2.70
2022-07-29T18:03:59.812Z,1.60
2022-07-29T18:06:27.457Z,1.83
2022-07-29T18:08:55.670Z,1.90
2022-07-29T18:11:23.134Z,2.17
2022-07-29T18:13:49.982Z,1.88
2022-07-29T18:16:17.237Z,2.13
2022-07-29T18:18:45.156Z,2.10
2022-07-29T18:21:12.841Z,1.90
2022-07-29T18:23:39.766Z,1.80
2022-07-29T18:26:06.743Z,1.80
2022-07-29T18:28:33.597Z,2.13
2022-07-29T18:31:01.215Z,2.05
2022-07-29T18:33:28.607Z,2.00
2022-07-29T18:36:10.625Z,1.88
2022-07-29T18:38:42.197Z,2.42
2022-07-29T18:41:09.105Z,2.30
2022-07-29T18:43:38.403Z,2.05
2022-07-29T18:46:06.774Z,2.83
2022-07-29T18:48:34.484Z,2.65
2022-07-29T18:51:01.843Z,2.47
2022-07-29T18:53:29.050Z,2.78
2022-07-29T18:56:00.247Z,3.70
2022-07-29T18:58:27.323Z,5.88
2022-07-29T19:00:54.232Z,8.13
2022-07-29T19:03:21.174Z,8.43
2022-07-29T19:05:48.023Z,6.22
2022-07-29T19:08:14.944Z,6.13
2022-07-29T19:10:45.274Z,5.50
2022-07-29T19:13:13.386Z,5.45
2022-07-29T19:15:40.511Z,4.57
2022-07-29T19:18:07.575Z,4.28
2022-07-29T19:20:34.517Z,4.30
2022-07-29T19:23:01.381Z,3.63
2022-07-29T19:25:28.592Z,4.40
2022-07-29T19:27:56.917Z,4.43
2022-07-29T19:30:23.857Z,4.85
2022-07-29T19:32:50.800Z,4.30
2022-07-29T19:35:24.362Z,4.18
2022-07-29T19:37:56.692Z,3.42
2022-07-29T19:40:23.755Z,3.72
2022-07-29T19:42:51.821Z,3.33
2022-07-29T19:45:23.228Z,3.28
2022-07-29T19:47:50.226Z,3.65
2022-07-29T19:50:18.142Z,3.00
2022-07-29T19:52:47.543Z,2.70
2022-07-29T19:55:15.361Z,2.72
2022-07-29T19:57:42.264Z,2.63
2022-07-29T20:00:11.856Z,2.45
2022-07-29T20:02:40.422Z,2.83
2022-07-29T20:05:08.972Z,2.70
2022-07-29T20:07:37.081Z,2.75
2022-07-29T20:10:05.425Z,3.13
2022-07-29T20:12:32.913Z,2.58
2022-07-29T20:14:59.879Z,2.70
2022-07-29T20:17:27.683Z,2.70
2022-07-29T20:19:54.852Z,2.40
2022-07-29T20:22:22.143Z,2.92
2022-07-29T20:24:49.850Z,2.72
2022-07-29T20:27:16.637Z,2.50
2022-07-29T20:29:43.762Z,2.83
2022-07-29T20:32:12.288Z,2.70
2022-07-29T20:34:41.417Z,2.35
2022-07-29T20:37:14.632Z,2.63
2022-07-29T20:39:44.220Z,2.88
2022-07-29T20:42:11.029Z,2.70
2022-07-29T20:44:37.864Z,2.60
2022-07-29T20:47:05.077Z,2.33
2022-07-29T20:49:32.168Z,2.55
2022-07-29T20:51:59.040Z,2.95
2022-07-29T20:54:25.901Z,2.67
2022-07-29T20:56:53.317Z,3.03
2022-07-29T20:59:20.208Z,3.17
2022-07-29T21:01:47.160Z,3.33
2022-07-29T21:04:14.043Z,3.30
2022-07-29T21:06:41.232Z,3.10
2022-07-29T21:09:08.154Z,3.03
2022-07-29T21:11:44.622Z,3.38
2022-07-29T21:14:32.237Z,3.30
2022-07-29T21:16:59.167Z,3.45
2022-07-29T21:19:26.474Z,3.22
2022-07-29T21:21:53.432Z,3.50
2022-07-29T21:24:20.264Z,3.42
2022-07-29T21:26:59.456Z,3.28
2022-07-29T21:29:34.220Z,2.90
2022-07-29T21:32:01.378Z,2.97
2022-07-29T21:34:28.357Z,3.17
2022-07-29T21:36:55.173Z,3.22
2022-07-29T21:39:22.062Z,3.30
2022-07-29T21:41:48.985Z,3.15
2022-07-29T21:44:15.951Z,3.47
2022-07-29T21:46:42.741Z,3.75
2022-07-29T21:49:09.608Z,4.10
2022-07-29T21:51:36.440Z,3.85
2022-07-29T21:54:04.330Z,3.65
2022-07-29T21:56:31.549Z,3.42
2022-07-29T21:58:58.632Z,3.50
2022-07-29T22:01:25.592Z,3.40
2022-07-29T22:03:52.572Z,3.40
2022-07-29T22:06:19.738Z,3.50
2022-07-29T22:08:48.144Z,3.88
2022-07-29T22:11:15.070Z,3.67
2022-07-29T22:13:41.905Z,3.88
2022-07-29T22:16:10.345Z,3.70
2022-07-29T22:18:37.188Z,3.42
2022-07-29T22:21:04.151Z,4.63
2022-07-29T22:23:31.270Z,3.60
2022-07-29T22:25:58.073Z,4.15
2022-07-29T22:28:25.239Z,3.42
2022-07-29T22:30:52.203Z,3.72
2022-07-29T22:33:19.046Z,3.72
2022-07-29T22:35:48.845Z,3.72
2022-07-29T22:38:19.086Z,3.85
2022-07-29T22:40:48.765Z,3.80
2022-07-29T22:43:17.534Z,3.80
2022-07-29T22:45:44.580Z,4.25
2022-07-29T22:48:11.629Z,4.00
2022-07-29T22:50:39.118Z,4.10
2022-07-29T22:53:06.184Z,3.90
2022-07-29T22:55:33.110Z,4.20
2022-07-29T22:58:00.105Z,4.80
2022-07-29T23:00:27.001Z,4.38
2022-07-29T23:02:53.800Z,4.97
2022-07-29T23:05:21.043Z,4.60
2022-07-29T23:07:47.840Z,4.55
2022-07-29T23:10:14.797Z,5.22
2022-07-29T23:12:41.657Z,5.20
2022-07-29T23:15:08.712Z,4.90
2022-07-29T23:17:36.792Z,4.57
2022-07-29T23:20:09.954Z,5.07
2022-07-29T23:22:37.097Z,4.75
2022-07-29T23:25:06.394Z,5.03
2022-07-29T23:27:33.343Z,4.90
2022-07-29T23:30:00.411Z,4.88
2022-07-29T23:32:27.458Z,5.00
2022-07-29T23:34:54.285Z,4.53
2022-07-29T23:37:21.846Z,4.93
2022-07-29T23:39:48.729Z,4.65
2022-07-29T23:42:15.972Z,5.45
2022-07-29T23:44:43.155Z,4.80
2022-07-29T23:47:10.099Z,5.47
2022-07-29T23:49:37.283Z,4.95
2022-07-29T23:52:04.424Z,5.18
2022-07-29T23:54:31.685Z,5.05
2022-07-29T23:56:59.183Z,4.78
2022-07-29T23:59:26.254Z,5.03
